createdAt,value
2022-12-25T00:01:13.983Z,98052.84
2022-12-25T00:03:48.987Z,98056.39
2022-12-25T00:06:18.983Z,98053.95
2022-12-25T00:08:47.215Z,98054.24
2022-12-25T00:11:19.680Z,98050.96
2022-12-25T00:13:48.719Z,98056.32
2022-12-25T00:16:22.412Z,98057.90
2022-12-25T00:18:53.900Z,98067.15
2022-12-25T00:21:22.582Z,98077.27
2022-12-25T00:23:56.163Z,98077.76
2022-12-25T00:26:26.337Z,98076.70
2022-12-25T00:28:56.796Z,98077.73
2022-12-25T00:31:26.431Z,98076.64
2022-12-25T00:33:54.787Z,98080.70
2022-12-25T00:36:23.723Z,98076.36
2022-12-25T00:38:51.942Z,98076.66
2022-12-25T00:41:43.233Z,98075.16
2022-12-25T00:44:14.006Z,98077.43
2022-12-25T00:46:43.581Z,98079.79
2022-12-25T00:49:12.468Z,98076.88
2022-12-25T00:51:40.598Z,98084.36
2022-12-25T00:54:08.843Z,98096.68
2022-12-25T00:56:36.938Z,98095.25
2022-12-25T00:59:05.042Z,98099.27
2022-12-25T01:01:33.713Z,98098.84
2022-12-25T01:04:02.074Z,98103.36
2022-12-25T01:06:30.591Z,98101.88
2022-12-25T01:09:17.545Z,98102.67
2022-12-25T01:11:46.179Z,98104.13
2022-12-25T01:14:14.428Z,98105.22
2022-12-25T01:16:42.745Z,98104.41
2022-12-25T01:19:11.331Z,98107.09
2022-12-25T01:21:39.797Z,98108.99
2022-12-25T01:24:08.431Z,98113.09
2022-12-25T01:26:36.629Z,98108.65
2022-12-25T01:29:04.796Z,98106.29
2022-12-25T01:31:32.959Z,98101.27
2022-12-25T01:34:01.087Z,98105.55
2022-12-25T01:36:29.238Z,98106.41
2022-12-25T01:38:57.399Z,98109.52
2022-12-25T01:41:25.668Z,98112.66
2022-12-25T01:44:37.018Z,98116.48
2022-12-25T01:47:07.065Z,98117.28
2022-12-25T01:49:39.080Z,98118.19
2022-12-25T01:52:18.808Z,98123.98
2022-12-25T01:55:05.579Z,98121.86
2022-12-25T01:57:37.960Z,98121.11
2022-12-25T02:00:08.661Z,98124.54
2022-12-25T02:02:38.421Z,98120.58
2022-12-25T02:05:25.665Z,98126.40
2022-12-25T02:07:55.417Z,98125.54
2022-12-25T02:10:24.055Z,98128.55
2022-12-25T02:12:53.144Z,98126.14
2022-12-25T02:15:27.792Z,98128.80
2022-12-25T02:18:16.049Z,98128.29
2022-12-25T02:21:26.468Z,98127.62
2022-12-25T02:24:03.596Z,98128.08
2022-12-25T02:26:43.735Z,98127.58
2022-12-25T02:29:52.183Z,98130.17
2022-12-25T02:33:21.943Z,98131.42
2022-12-25T02:35:56.273Z,98143.49
2022-12-25T02:39:00.019Z,98144.59
2022-12-25T02:41:33.151Z,98151.80
2022-12-25T02:44:26.048Z,98151.81
2022-12-25T02:47:13.127Z,98148.20
2022-12-25T02:50:02.402Z,98145.39
2022-12-25T02:52:49.960Z,98151.00
2022-12-25T02:55:52.585Z,98154.90
2022-12-25T02:58:42.940Z,98159.54
2022-12-25T03:01:38.532Z,98158.16
2022-12-25T03:04:32.419Z,98162.31
2022-12-25T03:07:11.541Z,98165.64
2022-12-25T03:10:04.978Z,98167.89
2022-12-25T03:12:50.012Z,98169.75
2022-12-25T03:15:39.302Z,98170.02
2022-12-25T03:18:16.366Z,98174.98
2022-12-25T03:21:03.149Z,98179.35
2022-12-25T03:23:53.873Z,98176.30
2022-12-25T03:26:41.076Z,98184.32
2022-12-25T03:29:09.232Z,98189.43
2022-12-25T03:31:50.754Z,98186.91
2022-12-25T03:35:02.071Z,98190.40
2022-12-25T03:38:49.616Z,98199.45
2022-12-25T03:42:09.625Z,98201.84
2022-12-25T03:45:35.869Z,98200.86
2022-12-25T03:48:11.593Z,98201.28
2022-12-25T03:51:11.904Z,98206.44
2022-12-25T03:54:15.226Z,98205.22
2022-12-25T03:57:03.010Z,98210.50
2022-12-25T03:59:50.278Z,98211.27
2022-12-25T04:02:37.431Z,98206.30
2022-12-25T04:05:25.007Z,98203.79
2022-12-25T04:08:11.631Z,98201.86
2022-12-25T04:10:58.461Z,98213.26
2022-12-25T04:13:45.399Z,98213.23
2022-12-25T04:16:32.259Z,98215.89
2022-12-25T04:19:19.018Z,98217.58
2022-12-25T04:22:06.032Z,98220.77
2022-12-25T04:24:52.712Z,98231.82
2022-12-25T04:27:39.866Z,98235.66
2022-12-25T04:30:28.033Z,98231.90
2022-12-25T04:33:18.071Z,98239.24
2022-12-25T04:36:43.735Z,98239.33
2022-12-25T04:39:11.919Z,98242.86
2022-12-25T04:41:40.022Z,98253.52
2022-12-25T04:44:09.410Z,98259.10
2022-12-25T04:46:37.580Z,98259.83
2022-12-25T04:49:05.760Z,98258.58
2022-12-25T04:51:34.054Z,98268.48
2022-12-25T04:54:02.236Z,98267.15
2022-12-25T04:56:30.445Z,98263.99
2022-12-25T04:58:58.593Z,98264.48
2022-12-25T05:01:27.138Z,98274.19
2022-12-25T05:03:55.526Z,98279.20
2022-12-25T05:06:23.743Z,98278.00
2022-12-25T05:08:51.869Z,98283.88
2022-12-25T05:11:20.080Z,98285.59
2022-12-25T05:13:48.312Z,98291.34
2022-12-25T05:16:20.261Z,98293.33
2022-12-25T05:18:51.330Z,98290.48
2022-12-25T05:21:19.757Z,98284.21
2022-12-25T05:23:52.733Z,98284.96
2022-12-25T05:26:25.739Z,98282.39
2022-12-25T05:28:54.580Z,98282.89
2022-12-25T05:31:22.994Z,98283.73
2022-12-25T05:33:52.850Z,98285.48
2022-12-25T05:36:21.258Z,98291.04
2022-12-25T05:38:50.646Z,98294.23
2022-12-25T05:41:18.939Z,98298.16
2022-12-25T05:43:47.039Z,98302.91
2022-12-25T05:46:15.220Z,98299.45
2022-12-25T05:48:43.496Z,98305.23
2022-12-25T05:51:14.055Z,98310.27
2022-12-25T05:53:43.698Z,98306.88
2022-12-25T05:56:11.905Z,98314.66
2022-12-25T05:58:41.081Z,98318.36
2022-12-25T06:01:22.126Z,98317.86
2022-12-25T06:03:50.420Z,98319.77
2022-12-25T06:06:18.981Z,98322.91
2022-12-25T06:08:47.208Z,98321.89
2022-12-25T06:11:16.032Z,98322.65
2022-12-25T06:13:44.227Z,98319.45
2022-12-25T06:16:12.769Z,98320.40
2022-12-25T06:18:44.929Z,98325.17
2022-12-25T06:21:15.065Z,98331.60
2022-12-25T06:23:43.960Z,98337.33
2022-12-25T06:26:17.729Z,98339.89
2022-12-25T06:28:46.243Z,98339.73
2022-12-25T06:31:21.876Z,98343.33
2022-12-25T06:33:50.132Z,98349.17
2022-12-25T06:36:29.543Z,98354.24
2022-12-25T06:39:01.362Z,98355.83
2022-12-25T06:41:30.965Z,98357.73
2022-12-25T06:44:01.331Z,98364.45
2022-12-25T06:46:30.889Z,98369.92
2022-12-25T06:49:00.576Z,98375.17
2022-12-25T06:51:31.230Z,98378.54
2022-12-25T06:54:04.019Z,98384.83
2022-12-25T06:56:33.653Z,98388.55
2022-12-25T06:59:10.197Z,98392.15
2022-12-25T07:01:48.654Z,98390.10
2022-12-25T07:04:35.659Z,98389.51
2022-12-25T07:07:09.073Z,98399.27
2022-12-25T07:09:39.160Z,98406.09
2022-12-25T07:12:13.691Z,98412.46
2022-12-25T07:14:42.775Z,98411.13
2022-12-25T07:17:11.717Z,98412.38
2022-12-25T07:19:44.612Z,98410.97
2022-12-25T07:22:14.899Z,98420.05
2022-12-25T07:24:43.498Z,98430.89
2022-12-25T07:27:11.832Z,98428.20
2022-12-25T07:29:39.987Z,98430.76
2022-12-25T07:32:08.674Z,98433.48
2022-12-25T07:34:36.859Z,98435.45
2022-12-25T07:37:04.954Z,98435.70
2022-12-25T07:39:35.379Z,98432.71
2022-12-25T07:42:04.131Z,98433.13
2022-12-25T07:44:32.821Z,98432.34
2022-12-25T07:47:00.951Z,98437.14
2022-12-25T07:49:29.153Z,98438.73
2022-12-25T07:51:57.446Z,98445.98
2022-12-25T07:54:25.619Z,98450.95
2022-12-25T07:56:54.151Z,98464.35
2022-12-25T07:59:22.221Z,98466.80
2022-12-25T08:01:50.720Z,98473.53
2022-12-25T08:04:19.184Z,98480.23
2022-12-25T08:06:47.416Z,98489.63
2022-12-25T08:09:15.818Z,98498.20
2022-12-25T08:11:47.619Z,98501.35
2022-12-25T08:14:15.802Z,98499.75
2022-12-25T08:16:44.705Z,98502.38
2022-12-25T08:19:14.511Z,98502.46
2022-12-25T08:21:42.711Z,98499.04
2022-12-25T08:24:10.898Z,98504.73
2022-12-25T08:26:39.037Z,98508.01
2022-12-25T08:29:07.126Z,98510.17
2022-12-25T08:31:38.259Z,98512.73
2022-12-25T08:34:10.851Z,98514.42
2022-12-25T08:36:38.983Z,98517.49
2022-12-25T08:39:08.438Z,98518.56
2022-12-25T08:41:36.618Z,98515.28
2022-12-25T08:44:06.161Z,98509.88
2022-12-25T08:46:34.429Z,98506.23
2022-12-25T08:49:02.653Z,98501.72
2022-12-25T08:51:30.790Z,98498.96
2022-12-25T08:54:01.051Z,98506.09
2022-12-25T08:56:29.352Z,98507.09
2022-12-25T08:58:57.635Z,98507.19
2022-12-25T09:01:26.042Z,98509.67
2022-12-25T09:03:54.288Z,98510.40
2022-12-25T09:06:22.473Z,98511.77
2022-12-25T09:08:50.569Z,98510.41
2022-12-25T09:11:20.105Z,98510.60
2022-12-25T09:13:49.347Z,98509.88
2022-12-25T09:16:21.625Z,98510.51
2022-12-25T09:18:50.299Z,98517.91
2022-12-25T09:21:19.439Z,98526.85
2022-12-25T09:23:48.099Z,98523.64
2022-12-25T09:26:19.053Z,98526.44
2022-12-25T09:28:51.878Z,98527.55
2022-12-25T09:31:22.933Z,98531.48
2022-12-25T09:33:52.039Z,98534.20
2022-12-25T09:36:23.436Z,98533.25
2022-12-25T09:38:52.661Z,98526.87
2022-12-25T09:41:51.974Z,98520.71
2022-12-25T09:44:26.949Z,98520.18
2022-12-25T09:47:04.533Z,98534.33
2022-12-25T09:50:11.725Z,98531.61
2022-12-25T09:52:58.642Z,98537.11
2022-12-25T09:55:31.961Z,98532.52
2022-12-25T09:58:10.028Z,98526.65
2022-12-25T10:00:49.367Z,98523.83
2022-12-25T10:03:41.905Z,98526.01
2022-12-25T10:06:38.773Z,98534.96
2022-12-25T10:09:30.533Z,98531.58
2022-12-25T10:12:50.496Z,98531.67
2022-12-25T10:15:46.951Z,98527.52
2022-12-25T10:18:45.656Z,98523.87
2022-12-25T10:21:18.380Z,98521.48
2022-12-25T10:23:55.268Z,98526.08
2022-12-25T10:26:27.056Z,98517.46
2022-12-25T10:29:22.456Z,98512.62
2022-12-25T10:31:54.889Z,98518.30
2022-12-25T10:34:23.720Z,98520.44
2022-12-25T10:36:52.543Z,98517.65
2022-12-25T10:39:26.236Z,98513.38
2022-12-25T10:42:28.390Z,98514.82
2022-12-25T10:45:06.065Z,98512.23
2022-12-25T10:47:44.160Z,98513.86
2022-12-25T10:50:17.654Z,98516.00
2022-12-25T10:52:59.498Z,98508.90
2022-12-25T10:55:29.549Z,98514.05
2022-12-25T10:57:59.008Z,98518.50
2022-12-25T11:00:32.859Z,98517.10
2022-12-25T11:03:01.284Z,98517.98
2022-12-25T11:05:33.171Z,98513.06
2022-12-25T11:08:03.147Z,98503.66
2022-12-25T11:10:42.733Z,98501.79
2022-12-25T11:13:26.976Z,98495.17
2022-12-25T11:16:14.242Z,98494.66
2022-12-25T11:18:48.831Z,98496.13
2022-12-25T11:21:26.944Z,98495.46
2022-12-25T11:24:04.634Z,98497.40
2022-12-25T11:26:54.014Z,98499.31
2022-12-25T11:29:48.941Z,98506.34
2022-12-25T11:32:43.619Z,98507.86
2022-12-25T11:35:18.052Z,98504.63
2022-12-25T11:37:52.135Z,98505.18
2022-12-25T11:40:52.407Z,98504.73
2022-12-25T11:43:30.781Z,98508.33
2022-12-25T11:46:13.535Z,98509.40
2022-12-25T11:49:06.710Z,98502.73
2022-12-25T11:51:39.587Z,98506.70
2022-12-25T11:54:33.639Z,98504.45
2022-12-25T11:57:06.016Z,98502.78
2022-12-25T11:59:46.662Z,98507.27
2022-12-25T12:02:32.886Z,98508.35
2022-12-25T12:05:23.398Z,98507.35
2022-12-25T12:08:04.993Z,98513.98
2022-12-25T12:11:20.995Z,98512.75
2022-12-25T12:14:49.719Z,98514.15
2022-12-25T12:17:18.777Z,98512.67
2022-12-25T12:19:46.967Z,98520.07
2022-12-25T12:32:37.024Z,98538.45
2022-12-25T12:35:36.992Z,98547.11
2022-12-25T12:38:17.161Z,98550.36
2022-12-25T12:41:00.313Z,98560.87
2022-12-25T12:43:52.516Z,98565.73
2022-12-25T12:46:31.690Z,98574.86
2022-12-25T12:49:28.487Z,98575.73
2022-12-25T12:52:07.374Z,98569.61
2022-12-25T12:54:56.846Z,98575.16
2022-12-25T12:57:32.868Z,98584.63
2022-12-25T13:00:08.433Z,98585.23
2022-12-25T13:03:21.125Z,98580.45
2022-12-25T13:06:04.838Z,98580.90
2022-12-25T13:08:50.696Z,98581.34
2022-12-25T13:11:24.679Z,98582.55
2022-12-25T13:13:56.982Z,98581.29
2022-12-25T13:16:32.233Z,98580.98
2022-12-25T13:19:06.012Z,98583.42
2022-12-25T13:21:35.346Z,98582.11
2022-12-25T13:24:09.082Z,98586.52
2022-12-25T13:26:39.257Z,98594.70
2022-12-25T13:29:18.768Z,98598.77
2022-12-25T13:31:48.097Z,98592.20
2022-12-25T13:34:37.505Z,98591.66
2022-12-25T13:37:19.630Z,98600.83
2022-12-25T13:39:55.644Z,98597.34
2022-12-25T13:42:30.944Z,98602.59
2022-12-25T13:45:07.196Z,98611.52
2022-12-25T13:47:39.082Z,98615.49
2022-12-25T13:50:28.418Z,98610.50
2022-12-25T13:53:10.005Z,98611.69
2022-12-25T13:55:38.349Z,98616.11
2022-12-25T13:58:14.780Z,98608.34
2022-12-25T14:00:49.522Z,98606.94
2022-12-25T14:03:30.232Z,98617.58
2022-12-25T14:06:01.654Z,98615.42
2022-12-25T14:08:33.817Z,98616.20
2022-12-25T14:11:05.871Z,98616.63
2022-12-25T14:13:46.266Z,98618.63
2022-12-25T14:16:21.460Z,98627.05
2022-12-25T14:19:02.437Z,98630.70
2022-12-25T14:21:35.111Z,98631.93
2022-12-25T14:24:03.528Z,98635.05
2022-12-25T14:26:33.897Z,98636.73
2022-12-25T14:29:05.110Z,98636.33
2022-12-25T14:31:34.453Z,98641.51
2022-12-25T14:34:07.975Z,98641.67
2022-12-25T14:36:36.540Z,98642.36
2022-12-25T14:39:22.561Z,98641.92
2022-12-25T14:41:54.592Z,98645.89
2022-12-25T14:44:31.648Z,98647.73
2022-12-25T14:47:26.588Z,98655.66
2022-12-25T14:49:54.881Z,98658.39
2022-12-25T14:52:31.534Z,98660.38
2022-12-25T14:55:17.582Z,98660.14
2022-12-25T14:57:50.313Z,98664.20
2022-12-25T15:00:31.826Z,98661.61
2022-12-25T15:03:00.774Z,98661.35
2022-12-25T15:05:38.893Z,98661.42
2022-12-25T15:08:10.344Z,98661.66
2022-12-25T15:13:30.791Z,98663.20
2022-12-25T15:16:13.114Z,98670.04
2022-12-25T15:18:45.339Z,98674.89
2022-12-25T15:21:31.575Z,98680.46
2022-12-25T15:24:00.937Z,98683.19
2022-12-25T15:26:32.007Z,98688.98
2022-12-25T15:29:00.149Z,98693.36
2022-12-25T15:31:31.648Z,98698.77
2022-12-25T15:34:05.421Z,98699.29
2022-12-25T15:36:34.238Z,98698.34
2022-12-25T15:39:02.403Z,98701.23
2022-12-25T15:41:55.091Z,98704.36
2022-12-25T15:44:24.536Z,98709.02
2022-12-25T15:46:52.786Z,98705.57
2022-12-25T15:49:21.169Z,98710.66
2022-12-25T15:51:49.348Z,98710.78
2022-12-25T15:54:17.425Z,98707.50
2022-12-25T15:56:52.289Z,98703.92
2022-12-25T15:59:21.472Z,98709.04
2022-12-25T16:01:53.611Z,98715.64
2022-12-25T16:04:23.788Z,98726.46
2022-12-25T16:06:52.869Z,98726.02
2022-12-25T16:09:22.263Z,98730.94
2022-12-25T16:11:50.790Z,98736.77
2022-12-25T16:14:19.734Z,98745.61
2022-12-25T16:16:47.854Z,98746.86
2022-12-25T16:19:15.944Z,98738.59
2022-12-25T16:21:46.273Z,98730.69
2022-12-25T16:24:15.439Z,98725.19
2022-12-25T16:26:43.594Z,98727.77
2022-12-25T16:29:11.886Z,98729.35
2022-12-25T16:31:40.219Z,98731.55
2022-12-25T16:34:09.037Z,98722.29
2022-12-25T16:36:39.172Z,98716.45
2022-12-25T16:39:08.461Z,98717.13
2022-12-25T16:41:36.568Z,98711.89
2022-12-25T16:44:10.286Z,98710.72
2022-12-25T16:46:39.887Z,98713.55
2022-12-25T16:49:08.785Z,98712.35
2022-12-25T16:51:37.070Z,98708.73
2022-12-25T16:54:05.320Z,98708.41
2022-12-25T16:56:33.473Z,98708.81
2022-12-25T16:59:01.627Z,98711.86
2022-12-25T17:01:29.927Z,98714.23
2022-12-25T17:04:02.740Z,98702.49
2022-12-25T17:06:31.116Z,98700.08
2022-12-25T17:09:02.337Z,98703.20
2022-12-25T17:11:32.059Z,98714.86
2022-12-25T17:14:03.822Z,98717.72
2022-12-25T17:16:35.749Z,98706.11
2022-12-25T17:19:18.351Z,98688.82
2022-12-25T17:21:47.278Z,98685.49
2022-12-25T17:24:16.229Z,98686.19
2022-12-25T17:26:44.631Z,98689.95
2022-12-25T17:29:17.247Z,98682.67
2022-12-25T17:31:50.132Z,98686.15
2022-12-25T17:34:18.864Z,98693.13
2022-12-25T17:36:47.866Z,98695.91
2022-12-25T17:39:16.118Z,98699.70
2022-12-25T17:41:44.349Z,98707.08
2022-12-25T17:44:12.519Z,98715.07
2022-12-25T17:46:41.546Z,98718.58
2022-12-25T17:49:17.681Z,98724.66
2022-12-25T17:51:46.450Z,98724.94
2022-12-25T17:54:14.959Z,98726.20
2022-12-25T17:56:43.179Z,98726.70
2022-12-25T17:59:18.222Z,98727.09
2022-12-25T18:01:48.186Z,98729.94
2022-12-25T18:04:16.700Z,98732.67
2022-12-25T18:06:44.955Z,98730.67
2022-12-25T18:09:13.648Z,98726.59
2022-12-25T18:11:43.649Z,98713.23
2022-12-25T18:14:15.620Z,98713.59
2022-12-25T18:16:45.537Z,98717.05
2022-12-25T18:19:15.397Z,98714.46
2022-12-25T18:21:43.525Z,98711.77
2022-12-25T18:24:12.217Z,98718.83
2022-12-25T18:26:40.349Z,98714.84
2022-12-25T18:29:08.499Z,98710.63
2022-12-25T18:31:36.800Z,98705.05
2022-12-25T18:34:04.994Z,98697.89
2022-12-25T18:36:33.379Z,98699.59
2022-12-25T18:39:01.748Z,98708.54
2022-12-25T18:41:30.678Z,98715.66
2022-12-25T18:43:59.840Z,98719.08
2022-12-25T18:46:28.124Z,98713.11
2022-12-25T18:48:57.448Z,98718.44
2022-12-25T18:51:31.313Z,98719.06
2022-12-25T18:54:03.111Z,98725.89
2022-12-25T18:56:31.240Z,98729.64
2022-12-25T18:59:00.637Z,98730.60
2022-12-25T19:01:29.008Z,98732.05
2022-12-25T19:04:04.538Z,98739.64
2022-12-25T19:06:34.027Z,98742.35
2022-12-25T19:09:09.164Z,98746.42
2022-12-25T19:11:46.104Z,98744.62
2022-12-25T19:14:15.220Z,98750.13
2022-12-25T19:16:43.761Z,98755.11
2022-12-25T19:19:11.890Z,98753.58
2022-12-25T19:21:40.691Z,98751.83
2022-12-25T19:24:09.015Z,98750.73
2022-12-25T19:26:37.738Z,98748.19
2022-12-25T19:29:05.924Z,98747.30
2022-12-25T19:31:34.085Z,98747.34
2022-12-25T19:34:02.229Z,98741.53
2022-12-25T19:36:30.542Z,98740.89
2022-12-25T19:38:58.672Z,98735.29
2022-12-25T19:41:26.928Z,98739.39
2022-12-25T19:43:55.074Z,98743.32
2022-12-25T19:46:30.663Z,98748.59
2022-12-25T19:49:04.241Z,98746.14
2022-12-25T19:51:38.522Z,98739.71
2022-12-25T19:54:06.805Z,98730.91
2022-12-25T19:56:35.233Z,98730.20
2022-12-25T19:59:03.568Z,98733.27
2022-12-25T20:01:31.862Z,98737.24
2022-12-25T20:04:00.265Z,98737.33
2022-12-25T20:06:33.748Z,98731.56
2022-12-25T20:09:06.906Z,98731.73
2022-12-25T20:11:36.601Z,98727.44
2022-12-25T20:14:07.047Z,98727.61
2022-12-25T20:16:39.424Z,98726.31
2022-12-25T20:19:08.135Z,98725.23
2022-12-25T20:21:36.259Z,98723.80
2022-12-25T20:24:06.321Z,98729.56
2022-12-25T20:26:34.874Z,98731.26
2022-12-25T20:29:04.228Z,98740.70
2022-12-25T20:31:35.072Z,98742.73
2022-12-25T20:34:10.904Z,98747.33
2022-12-25T20:36:39.136Z,98750.55
2022-12-25T20:39:10.038Z,98752.93
2022-12-25T20:41:39.895Z,98756.67
2022-12-25T20:44:10.047Z,98757.32
2022-12-25T20:46:38.792Z,98754.92
2022-12-25T20:49:07.144Z,98753.09
2022-12-25T20:51:35.846Z,98754.84
2022-12-25T20:54:10.196Z,98757.80
2022-12-25T20:56:38.772Z,98762.08
2022-12-25T20:59:06.951Z,98771.43
2022-12-25T21:01:35.156Z,98778.45
2022-12-25T21:04:03.540Z,98784.73
2022-12-25T21:06:31.831Z,98788.80
2022-12-25T21:09:00.195Z,98785.40
2022-12-25T21:11:30.490Z,98784.77
2022-12-25T21:13:58.729Z,98787.27
2022-12-25T21:16:27.207Z,98791.68
2022-12-25T21:18:55.465Z,98787.52
2022-12-25T21:21:23.771Z,98791.08
2022-12-25T21:23:54.553Z,98797.61
2022-12-25T21:26:28.688Z,98807.88
2022-12-25T21:29:00.529Z,98805.42
2022-12-25T21:31:29.841Z,98807.10
2022-12-25T21:33:58.067Z,98811.64
2022-12-25T21:36:28.338Z,98808.69
2022-12-25T21:38:59.789Z,98811.83
2022-12-25T21:41:29.718Z,98818.30
2022-12-25T21:43:58.526Z,98818.70
2022-12-25T21:46:28.154Z,98818.57
2022-12-25T21:48:57.280Z,98815.29
2022-12-25T21:51:50.365Z,98812.86
2022-12-25T21:54:21.753Z,98815.49
2022-12-25T21:56:50.283Z,98812.91
2022-12-25T21:59:22.604Z,98814.40
2022-12-25T22:01:52.369Z,98816.07
2022-12-25T22:04:22.980Z,98819.95
2022-12-25T22:07:10.343Z,98829.10
2022-12-25T22:09:38.642Z,98827.41
2022-12-25T22:12:31.937Z,98823.80
2022-12-25T22:15:06.802Z,98818.78
2022-12-25T22:17:58.204Z,98804.91
2022-12-25T22:20:34.864Z,98797.13
2022-12-25T22:23:03.791Z,98789.11
2022-12-25T22:25:32.080Z,98787.09
2022-12-25T22:28:00.500Z,98794.27
2022-12-25T22:30:29.491Z,98795.59
2022-12-25T22:32:58.112Z,98786.41
2022-12-25T22:35:26.214Z,98775.98
2022-12-25T22:37:54.829Z,98778.98
2022-12-25T22:40:22.986Z,98786.23
2022-12-25T22:42:55.048Z,98785.47
2022-12-25T22:45:24.592Z,98791.09
2022-12-25T22:47:52.739Z,98792.02
2022-12-25T22:50:20.921Z,98794.16
2022-12-25T22:52:49.068Z,98799.39
2022-12-25T22:55:18.854Z,98798.85
2022-12-25T22:57:47.138Z,98801.86
2022-12-25T23:00:15.410Z,98800.31
2022-12-25T23:02:43.794Z,98804.06
2022-12-25T23:05:12.133Z,98804.14
2022-12-25T23:07:41.947Z,98799.53
2022-12-25T23:10:11.442Z,98793.88
2022-12-25T23:12:58.247Z,98790.12
2022-12-25T23:15:27.706Z,98795.63
2022-12-25T23:18:14.444Z,98804.44
2022-12-25T23:21:01.039Z,98802.96
2022-12-25T23:23:48.037Z,98804.66
2022-12-25T23:26:20.130Z,98806.17
2022-12-25T23:29:06.785Z,98803.95
2022-12-25T23:31:40.824Z,98798.77
2022-12-25T23:34:10.390Z,98800.04
2022-12-25T23:36:38.601Z,98804.44
2022-12-25T23:39:09.929Z,98801.68
2022-12-25T23:41:40.635Z,98805.05
2022-12-25T23:44:11.118Z,98808.08
2022-12-25T23:46:41.073Z,98806.96
2022-12-25T23:49:23.479Z,98800.27
2022-12-25T23:51:52.764Z,98804.17
2022-12-25T23:54:24.942Z,98817.61
2022-12-25T23:56:53.941Z,98818.73
2022-12-25T23:59:22.201Z,98820.59
